sensor_id;sensor_type;location;lat;lon;timestamp;P1;durP1;ratioP1;P2;durP2;ratioP2
46689;SDS011;32423;45.398;10.874;2023-11-21T00:02:33;31.20;;;14.38;;
46689;SDS011;32423;45.398;10.874;2023-11-21T00:05:28;24.30;;;14.65;;
46689;SDS011;32423;45.398;10.874;2023-11-21T00:08:22;19.42;;;10.35;;
46689;SDS011;32423;45.398;10.874;2023-11-21T00:11:15;19.65;;;12.30;;
46689;SDS011;32423;45.398;10.874;2023-11-21T00:14:09;22.98;;;13.00;;
46689;SDS011;32423;45.398;10.874;2023-11-21T00:17:04;25.65;;;13.70;;
46689;SDS011;32423;45.398;10.874;2023-11-21T00:20:02;20.05;;;13.02;;
46689;SDS011;32423;45.398;10.874;2023-11-21T00:22:57;16.07;;;10.50;;
46689;SDS011;32423;45.398;10.874;2023-11-21T00:25:51;19.03;;;13.47;;
46689;SDS011;32423;45.398;10.874;2023-11-21T00:28:46;20.67;;;12.57;;
46689;SDS011;32423;45.398;10.874;2023-11-21T00:31:40;21.00;;;12.47;;
46689;SDS011;32423;45.398;10.874;2023-11-21T00:34:35;17.80;;;12.77;;
46689;SDS011;32423;45.398;10.874;2023-11-21T00:37:29;20.47;;;12.87;;
46689;SDS011;32423;45.398;10.874;2023-11-21T00:40:27;13.90;;;8.80;;
46689;SDS011;32423;45.398;10.874;2023-11-21T00:43:21;18.88;;;11.88;;
46689;SDS011;32423;45.398;10.874;2023-11-21T00:46:16;15.90;;;9.13;;
46689;SDS011;32423;45.398;10.874;2023-11-21T00:49:16;17.95;;;11.30;;
46689;SDS011;32423;45.398;10.874;2023-11-21T00:52:11;20.00;;;9.47;;
46689;SDS011;32423;45.398;10.874;2023-11-21T00:55:05;21.70;;;13.20;;
46689;SDS011;32423;45.398;10.874;2023-11-21T00:57:57;18.67;;;12.60;;
46689;SDS011;32423;45.398;10.874;2023-11-21T01:00:52;20.83;;;11.88;;
46689;SDS011;32423;45.398;10.874;2023-11-21T01:03:49;15.70;;;9.87;;
46689;SDS011;32423;45.398;10.874;2023-11-21T01:06:44;19.75;;;13.15;;
46689;SDS011;32423;45.398;10.874;2023-11-21T01:09:39;19.70;;;13.27;;
46689;SDS011;32423;45.398;10.874;2023-11-21T01:12:33;21.23;;;13.07;;
46689;SDS011;32423;45.398;10.874;2023-11-21T01:15:28;18.20;;;12.82;;
46689;SDS011;32423;45.398;10.874;2023-11-21T01:18:23;26.53;;;16.67;;
46689;SDS011;32423;45.398;10.874;2023-11-21T01:21:17;19.30;;;11.87;;
46689;SDS011;32423;45.398;10.874;2023-11-21T01:24:12;22.20;;;14.52;;
46689;SDS011;32423;45.398;10.874;2023-11-21T01:27:12;39.38;;;16.70;;
46689;SDS011;32423;45.398;10.874;2023-11-21T01:30:06;32.45;;;16.30;;
46689;SDS011;32423;45.398;10.874;2023-11-21T01:33:01;22.17;;;12.07;;
46689;SDS011;32423;45.398;10.874;2023-11-21T01:35:55;26.33;;;14.70;;
46689;SDS011;32423;45.398;10.874;2023-11-21T01:38:50;21.00;;;14.77;;
46689;SDS011;32423;45.398;10.874;2023-11-21T01:41:44;21.90;;;14.40;;
46689;SDS011;32423;45.398;10.874;2023-11-21T01:44:39;20.60;;;11.20;;
46689;SDS011;32423;45.398;10.874;2023-11-21T01:47:31;21.17;;;13.75;;
46689;SDS011;32423;45.398;10.874;2023-11-21T01:50:26;16.10;;;11.70;;
46689;SDS011;32423;45.398;10.874;2023-11-21T01:53:21;21.23;;;13.50;;
46689;SDS011;32423;45.398;10.874;2023-11-21T01:56:16;26.92;;;13.25;;
46689;SDS011;32423;45.398;10.874;2023-11-21T01:59:08;19.30;;;13.20;;
46689;SDS011;32423;45.398;10.874;2023-11-21T02:02:01;16.42;;;11.32;;
46689;SDS011;32423;45.398;10.874;2023-11-21T02:04:54;21.05;;;12.68;;
46689;SDS011;32423;45.398;10.874;2023-11-21T02:07:52;18.00;;;11.40;;
46689;SDS011;32423;45.398;10.874;2023-11-21T02:10:44;19.90;;;12.45;;
46689;SDS011;32423;45.398;10.874;2023-11-21T02:13:39;17.83;;;11.60;;
46689;SDS011;32423;45.398;10.874;2023-11-21T02:16:39;17.77;;;11.57;;
46689;SDS011;32423;45.398;10.874;2023-11-21T02:19:35;20.33;;;11.68;;
46689;SDS011;32423;45.398;10.874;2023-11-21T02:22:27;20.80;;;10.80;;
46689;SDS011;32423;45.398;10.874;2023-11-21T02:25:30;17.23;;;10.88;;
46689;SDS011;32423;45.398;10.874;2023-11-21T02:28:25;16.55;;;10.48;;
46689;SDS011;32423;45.398;10.874;2023-11-21T02:31:17;14.55;;;9.77;;
46689;SDS011;32423;45.398;10.874;2023-11-21T02:34:12;17.48;;;11.18;;
46689;SDS011;32423;45.398;10.874;2023-11-21T02:37:04;15.17;;;9.70;;
46689;SDS011;32423;45.398;10.874;2023-11-21T02:40:00;15.60;;;9.43;;
46689;SDS011;32423;45.398;10.874;2023-11-21T02:42:57;13.73;;;9.88;;
46689;SDS011;32423;45.398;10.874;2023-11-21T02:45:52;19.15;;;10.32;;
46689;SDS011;32423;45.398;10.874;2023-11-21T02:48:49;13.73;;;8.88;;
46689;SDS011;32423;45.398;10.874;2023-11-21T02:51:50;17.10;;;10.45;;
46689;SDS011;32423;45.398;10.874;2023-11-21T02:54:45;19.00;;;9.00;;
46689;SDS011;32423;45.398;10.874;2023-11-21T02:57:39;15.40;;;9.80;;
46689;SDS011;32423;45.398;10.874;2023-11-21T03:00:34;9.38;;;6.38;;
46689;SDS011;32423;45.398;10.874;2023-11-21T03:03:29;11.60;;;6.60;;
46689;SDS011;32423;45.398;10.874;2023-11-21T03:06:21;13.50;;;9.20;;
46689;SDS011;32423;45.398;10.874;2023-11-21T03:09:16;12.80;;;9.30;;
46689;SDS011;32423;45.398;10.874;2023-11-21T03:12:09;14.80;;;9.52;;
46689;SDS011;32423;45.398;10.874;2023-11-21T03:15:04;16.30;;;9.95;;
46689;SDS011;32423;45.398;10.874;2023-11-21T03:18:01;17.55;;;10.43;;
46689;SDS011;32423;45.398;10.874;2023-11-21T03:20:56;13.23;;;7.53;;
46689;SDS011;32423;45.398;10.874;2023-11-21T03:23:50;11.03;;;8.23;;
46689;SDS011;32423;45.398;10.874;2023-11-21T03:26:45;22.02;;;11.23;;
46689;SDS011;32423;45.398;10.874;2023-11-21T03:29:40;17.37;;;10.23;;
46689;SDS011;32423;45.398;10.874;2023-11-21T03:32:34;14.65;;;10.57;;
46689;SDS011;32423;45.398;10.874;2023-11-21T03:35:29;16.88;;;11.68;;
46689;SDS011;32423;45.398;10.874;2023-11-21T03:38:20;16.05;;;11.32;;
46689;SDS011;32423;45.398;10.874;2023-11-21T03:41:15;19.73;;;13.13;;
46689;SDS011;32423;45.398;10.874;2023-11-21T03:44:07;14.82;;;9.63;;
46689;SDS011;32423;45.398;10.874;2023-11-21T03:47:02;17.52;;;12.13;;
46689;SDS011;32423;45.398;10.874;2023-11-21T03:49:54;19.50;;;12.55;;
46689;SDS011;32423;45.398;10.874;2023-11-21T03:52:49;18.08;;;9.90;;
46689;SDS011;32423;45.398;10.874;2023-11-21T03:55:44;15.27;;;9.57;;
46689;SDS011;32423;45.398;10.874;2023-11-21T03:58:36;15.05;;;10.20;;
46689;SDS011;32423;45.398;10.874;2023-11-21T04:01:28;13.37;;;9.80;;
46689;SDS011;32423;45.398;10.874;2023-11-21T04:04:22;15.63;;;9.32;;
46689;SDS011;32423;45.398;10.874;2023-11-21T04:07:16;11.57;;;7.37;;
46689;SDS011;32423;45.398;10.874;2023-11-21T04:10:11;16.55;;;9.52;;
46689;SDS011;32423;45.398;10.874;2023-11-21T04:13:09;13.95;;;8.65;;
46689;SDS011;32423;45.398;10.874;2023-11-21T04:16:01;16.95;;;9.45;;
46689;SDS011;32423;45.398;10.874;2023-11-21T04:18:53;14.40;;;9.50;;
46689;SDS011;32423;45.398;10.874;2023-11-21T04:21:46;15.27;;;8.75;;
46689;SDS011;32423;45.398;10.874;2023-11-21T04:24:38;13.57;;;8.23;;
46689;SDS011;32423;45.398;10.874;2023-11-21T04:27:28;12.07;;;8.05;;
46689;SDS011;32423;45.398;10.874;2023-11-21T04:30:22;18.20;;;9.13;;
46689;SDS011;32423;45.398;10.874;2023-11-21T04:33:17;16.37;;;9.20;;
46689;SDS011;32423;45.398;10.874;2023-11-21T04:36:09;12.95;;;7.70;;
46689;SDS011;32423;45.398;10.874;2023-11-21T04:39:01;11.30;;;8.10;;
46689;SDS011;32423;45.398;10.874;2023-11-21T04:41:55;15.65;;;8.52;;
46689;SDS011;32423;45.398;10.874;2023-11-21T04:44:50;13.20;;;7.87;;
46689;SDS011;32423;45.398;10.874;2023-11-21T04:47:48;12.43;;;8.65;;
46689;SDS011;32423;45.398;10.874;2023-11-21T04:50:42;18.87;;;8.67;;
46689;SDS011;32423;45.398;10.874;2023-11-21T04:53:37;13.73;;;7.97;;
46689;SDS011;32423;45.398;10.874;2023-11-21T04:56:29;16.95;;;8.20;;
46689;SDS011;32423;45.398;10.874;2023-11-21T04:59:27;9.23;;;5.68;;
46689;SDS011;32423;45.398;10.874;2023-11-21T05:02:21;12.63;;;8.27;;
46689;SDS011;32423;45.398;10.874;2023-11-21T05:05:16;16.27;;;9.05;;
46689;SDS011;32423;45.398;10.874;2023-11-21T05:08:11;19.33;;;9.30;;
46689;SDS011;32423;45.398;10.874;2023-11-21T05:11:05;14.68;;;8.80;;
46689;SDS011;32423;45.398;10.874;2023-11-21T05:14:00;13.27;;;8.20;;
46689;SDS011;32423;45.398;10.874;2023-11-21T05:16:59;14.40;;;9.13;;
46689;SDS011;32423;45.398;10.874;2023-11-21T05:19:51;12.38;;;8.73;;
46689;SDS011;32423;45.398;10.874;2023-11-21T05:22:43;14.40;;;9.07;;
46689;SDS011;32423;45.398;10.874;2023-11-21T05:25:38;10.23;;;6.85;;
46689;SDS011;32423;45.398;10.874;2023-11-21T05:28:33;13.40;;;7.93;;
46689;SDS011;32423;45.398;10.874;2023-11-21T05:31:23;20.58;;;8.70;;
46689;SDS011;32423;45.398;10.874;2023-11-21T05:34:18;14.50;;;8.43;;
46689;SDS011;32423;45.398;10.874;2023-11-21T05:37:13;15.02;;;7.30;;
46689;SDS011;32423;45.398;10.874;2023-11-21T05:40:07;15.37;;;7.23;;
46689;SDS011;32423;45.398;10.874;2023-11-21T05:43:02;14.63;;;6.88;;
46689;SDS011;32423;45.398;10.874;2023-11-21T05:45:57;15.47;;;8.23;;
46689;SDS011;32423;45.398;10.874;2023-11-21T05:48:52;11.57;;;7.87;;
46689;SDS011;32423;45.398;10.874;2023-11-21T05:51:46;16.35;;;9.45;;
46689;SDS011;32423;45.398;10.874;2023-11-21T05:54:41;25.60;;;9.53;;
46689;SDS011;32423;45.398;10.874;2023-11-21T05:57:36;16.40;;;9.13;;
46689;SDS011;32423;45.398;10.874;2023-11-21T06:00:38;12.77;;;8.57;;
46689;SDS011;32423;45.398;10.874;2023-11-21T06:03:32;17.80;;;7.67;;
46689;SDS011;32423;45.398;10.874;2023-11-21T06:06:27;15.73;;;9.87;;
46689;SDS011;32423;45.398;10.874;2023-11-21T06:09:22;21.67;;;10.30;;
46689;SDS011;32423;45.398;10.874;2023-11-21T06:12:14;22.30;;;13.98;;
46689;SDS011;32423;45.398;10.874;2023-11-21T06:18:01;19.77;;;10.77;;
46689;SDS011;32423;45.398;10.874;2023-11-21T06:20:55;16.63;;;8.70;;
46689;SDS011;32423;45.398;10.874;2023-11-21T06:23:47;16.15;;;9.63;;
46689;SDS011;32423;45.398;10.874;2023-11-21T06:26:42;13.23;;;7.28;;
46689;SDS011;32423;45.398;10.874;2023-11-21T06:29:37;14.88;;;9.30;;
46689;SDS011;32423;45.398;10.874;2023-11-21T06:32:31;12.68;;;7.32;;
46689;SDS011;32423;45.398;10.874;2023-11-21T06:35:29;18.20;;;9.90;;
46689;SDS011;32423;45.398;10.874;2023-11-21T06:38:23;19.05;;;9.85;;
46689;SDS011;32423;45.398;10.874;2023-11-21T06:41:19;16.13;;;9.73;;
46689;SDS011;32423;45.398;10.874;2023-11-21T06:44:13;14.60;;;8.52;;
46689;SDS011;32423;45.398;10.874;2023-11-21T06:47:08;19.65;;;9.52;;
46689;SDS011;32423;45.398;10.874;2023-11-21T06:50:02;24.33;;;9.15;;
46689;SDS011;32423;45.398;10.874;2023-11-21T06:52:57;27.13;;;9.18;;
46689;SDS011;32423;45.398;10.874;2023-11-21T06:55:52;18.43;;;8.93;;
46689;SDS011;32423;45.398;10.874;2023-11-21T06:58:46;17.17;;;8.90;;
46689;SDS011;32423;45.398;10.874;2023-11-21T07:01:41;17.52;;;8.95;;
46689;SDS011;32423;45.398;10.874;2023-11-21T07:04:35;19.83;;;9.98;;
46689;SDS011;32423;45.398;10.874;2023-11-21T07:07:30;18.55;;;10.82;;
46689;SDS011;32423;45.398;10.874;2023-11-21T07:10:24;26.67;;;11.23;;
46689;SDS011;32423;45.398;10.874;2023-11-21T07:13:19;22.95;;;10.23;;
46689;SDS011;32423;45.398;10.874;2023-11-21T07:16:13;18.50;;;9.80;;
46689;SDS011;32423;45.398;10.874;2023-11-21T07:19:08;16.20;;;9.50;;
46689;SDS011;32423;45.398;10.874;2023-11-21T07:22:00;17.73;;;9.85;;
46689;SDS011;32423;45.398;10.874;2023-11-21T07:25:03;22.42;;;8.70;;
46689;SDS011;32423;45.398;10.874;2023-11-21T07:27:59;24.33;;;10.50;;
46689;SDS011;32423;45.398;10.874;2023-11-21T07:30:53;61.88;;;29.00;;
46689;SDS011;32423;45.398;10.874;2023-11-21T07:33:47;27.00;;;12.32;;
46689;SDS011;32423;45.398;10.874;2023-11-21T07:36:42;18.98;;;9.65;;
46689;SDS011;32423;45.398;10.874;2023-11-21T07:39:36;11.17;;;7.47;;
46689;SDS011;32423;45.398;10.874;2023-11-21T07:42:36;19.08;;;10.02;;
46689;SDS011;32423;45.398;10.874;2023-11-21T07:45:28;15.05;;;9.82;;
46689;SDS011;32423;45.398;10.874;2023-11-21T07:48:22;18.05;;;9.23;;
46689;SDS011;32423;45.398;10.874;2023-11-21T07:51:17;23.10;;;6.90;;
46689;SDS011;32423;45.398;10.874;2023-11-21T07:54:11;17.33;;;10.20;;
46689;SDS011;32423;45.398;10.874;2023-11-21T07:57:06;15.97;;;7.83;;
46689;SDS011;32423;45.398;10.874;2023-11-21T08:00:01;17.92;;;6.88;;
46689;SDS011;32423;45.398;10.874;2023-11-21T08:02:59;12.63;;;8.23;;
46689;SDS011;32423;45.398;10.874;2023-11-21T08:05:53;15.45;;;6.78;;
46689;SDS011;32423;45.398;10.874;2023-11-21T08:08:48;14.60;;;6.43;;
46689;SDS011;32423;45.398;10.874;2023-11-21T08:11:41;19.93;;;7.87;;
46689;SDS011;32423;45.398;10.874;2023-11-21T08:14:35;21.77;;;7.47;;
46689;SDS011;32423;45.398;10.874;2023-11-21T08:17:27;8.90;;;4.95;;
46689;SDS011;32423;45.398;10.874;2023-11-21T08:20:22;17.42;;;7.25;;
46689;SDS011;32423;45.398;10.874;2023-11-21T08:23:14;9.77;;;6.50;;
46689;SDS011;32423;45.398;10.874;2023-11-21T08:26:08;14.33;;;6.90;;
46689;SDS011;32423;45.398;10.874;2023-11-21T08:29:03;10.63;;;6.17;;
46689;SDS011;32423;45.398;10.874;2023-11-21T08:31:58;12.73;;;5.60;;
46689;SDS011;32423;45.398;10.874;2023-11-21T08:34:50;13.75;;;7.50;;
46689;SDS011;32423;45.398;10.874;2023-11-21T08:37:45;8.75;;;5.45;;
46689;SDS011;32423;45.398;10.874;2023-11-21T08:40:39;19.17;;;8.60;;
46689;SDS011;32423;45.398;10.874;2023-11-21T08:43:33;10.48;;;6.50;;
46689;SDS011;32423;45.398;10.874;2023-11-21T08:46:29;13.32;;;6.35;;
46689;SDS011;32423;45.398;10.874;2023-11-21T08:49:20;11.13;;;6.35;;
46689;SDS011;32423;45.398;10.874;2023-11-21T08:52:12;8.68;;;5.68;;
46689;SDS011;32423;45.398;10.874;2023-11-21T08:55:07;10.87;;;5.43;;
46689;SDS011;32423;45.398;10.874;2023-11-21T08:57:59;10.68;;;5.95;;
46689;SDS011;32423;45.398;10.874;2023-11-21T09:00:57;7.43;;;4.97;;
46689;SDS011;32423;45.398;10.874;2023-11-21T09:03:51;8.15;;;6.07;;
46689;SDS011;32423;45.398;10.874;2023-11-21T09:06:41;13.07;;;7.72;;
46689;SDS011;32423;45.398;10.874;2023-11-21T09:09:33;10.95;;;6.22;;
46689;SDS011;32423;45.398;10.874;2023-11-21T09:12:28;7.85;;;4.90;;
46689;SDS011;32423;45.398;10.874;2023-11-21T09:15:22;10.93;;;4.68;;
46689;SDS011;32423;45.398;10.874;2023-11-21T09:18:17;11.30;;;6.03;;
46689;SDS011;32423;45.398;10.874;2023-11-21T09:21:12;9.40;;;4.23;;
46689;SDS011;32423;45.398;10.874;2023-11-21T09:24:06;13.47;;;6.83;;
46689;SDS011;32423;45.398;10.874;2023-11-21T09:27:01;12.32;;;7.55;;
46689;SDS011;32423;45.398;10.874;2023-11-21T09:29:55;9.30;;;5.07;;
46689;SDS011;32423;45.398;10.874;2023-11-21T09:32:47;11.35;;;6.60;;
46689;SDS011;32423;45.398;10.874;2023-11-21T09:35:42;13.67;;;6.77;;
46689;SDS011;32423;45.398;10.874;2023-11-21T09:38:34;13.67;;;7.80;;
46689;SDS011;32423;45.398;10.874;2023-11-21T09:41:34;9.05;;;5.35;;
46689;SDS011;32423;45.398;10.874;2023-11-21T09:44:46;8.40;;;5.50;;
46689;SDS011;32423;45.398;10.874;2023-11-21T09:47:43;12.98;;;5.70;;
46689;SDS011;32423;45.398;10.874;2023-11-21T09:50:36;8.43;;;4.40;;
46689;SDS011;32423;45.398;10.874;2023-11-21T09:53:36;9.90;;;5.25;;
46689;SDS011;32423;45.398;10.874;2023-11-21T09:56:34;8.38;;;4.13;;
46689;SDS011;32423;45.398;10.874;2023-11-21T09:59:34;8.80;;;4.78;;
46689;SDS011;32423;45.398;10.874;2023-11-21T10:02:28;15.48;;;7.13;;
46689;SDS011;32423;45.398;10.874;2023-11-21T10:05:25;15.18;;;5.30;;
46689;SDS011;32423;45.398;10.874;2023-11-21T10:08:20;10.33;;;3.77;;
46689;SDS011;32423;45.398;10.874;2023-11-21T10:11:14;16.08;;;6.15;;
46689;SDS011;32423;45.398;10.874;2023-11-21T10:14:12;6.13;;;3.60;;
46689;SDS011;32423;45.398;10.874;2023-11-21T10:17:06;6.57;;;4.30;;
46689;SDS011;32423;45.398;10.874;2023-11-21T10:20:02;10.45;;;4.80;;
46689;SDS011;32423;45.398;10.874;2023-11-21T10:23:00;10.55;;;5.25;;
46689;SDS011;32423;45.398;10.874;2023-11-21T10:25:55;6.80;;;4.97;;
46689;SDS011;32423;45.398;10.874;2023-11-21T10:28:57;11.88;;;4.63;;
46689;SDS011;32423;45.398;10.874;2023-11-21T10:31:55;6.25;;;4.38;;
46689;SDS011;32423;45.398;10.874;2023-11-21T10:35:00;10.00;;;5.57;;
46689;SDS011;32423;45.398;10.874;2023-11-21T10:37:59;9.02;;;4.75;;
46689;SDS011;32423;45.398;10.874;2023-11-21T10:40:57;7.45;;;4.82;;
46689;SDS011;32423;45.398;10.874;2023-11-21T10:43:52;7.20;;;4.70;;
46689;SDS011;32423;45.398;10.874;2023-11-21T10:46:45;8.35;;;5.13;;
46689;SDS011;32423;45.398;10.874;2023-11-21T10:49:40;6.68;;;4.07;;
46689;SDS011;32423;45.398;10.874;2023-11-21T10:52:34;11.75;;;4.88;;
46689;SDS011;32423;45.398;10.874;2023-11-21T10:55:29;8.20;;;5.07;;
46689;SDS011;32423;45.398;10.874;2023-11-21T10:58:18;12.77;;;5.03;;
46689;SDS011;32423;45.398;10.874;2023-11-21T11:01:13;13.65;;;4.97;;
46689;SDS011;32423;45.398;10.874;2023-11-21T11:04:14;12.30;;;5.45;;
46689;SDS011;32423;45.398;10.874;2023-11-21T11:07:04;8.65;;;4.88;;
46689;SDS011;32423;45.398;10.874;2023-11-21T11:10:00;13.10;;;4.93;;
46689;SDS011;32423;45.398;10.874;2023-11-21T11:12:57;6.93;;;4.78;;
46689;SDS011;32423;45.398;10.874;2023-11-21T11:15:51;10.85;;;5.97;;
46689;SDS011;32423;45.398;10.874;2023-11-21T11:18:49;11.07;;;6.43;;
46689;SDS011;32423;45.398;10.874;2023-11-21T11:25:19;15.77;;;7.80;;
46689;SDS011;32423;45.398;10.874;2023-11-21T11:28:29;30.30;;;12.05;;
46689;SDS011;32423;45.398;10.874;2023-11-21T11:31:53;17.58;;;9.13;;
46689;SDS011;32423;45.398;10.874;2023-11-21T11:34:50;18.75;;;10.02;;
46689;SDS011;32423;45.398;10.874;2023-11-21T11:37:50;15.20;;;9.88;;
46689;SDS011;32423;45.398;10.874;2023-11-21T11:40:42;15.43;;;9.10;;
46689;SDS011;32423;45.398;10.874;2023-11-21T11:43:38;19.08;;;10.88;;
46689;SDS011;32423;45.398;10.874;2023-11-21T11:46:43;15.68;;;9.35;;
46689;SDS011;32423;45.398;10.874;2023-11-21T11:49:38;20.27;;;11.52;;
46689;SDS011;32423;45.398;10.874;2023-11-21T11:53:11;19.05;;;11.23;;
46689;SDS011;32423;45.398;10.874;2023-11-21T11:56:24;22.08;;;10.98;;
46689;SDS011;32423;45.398;10.874;2023-11-21T11:59:20;19.02;;;11.45;;
46689;SDS011;32423;45.398;10.874;2023-11-21T12:02:15;17.97;;;7.43;;
46689;SDS011;32423;45.398;10.874;2023-11-21T12:05:13;18.35;;;10.55;;
46689;SDS011;32423;45.398;10.874;2023-11-21T12:08:08;23.30;;;10.90;;
46689;SDS011;32423;45.398;10.874;2023-11-21T12:11:03;23.53;;;12.83;;
46689;SDS011;32423;45.398;10.874;2023-11-21T12:13:59;22.80;;;13.93;;
46689;SDS011;32423;45.398;10.874;2023-11-21T12:16:58;22.10;;;11.70;;
46689;SDS011;32423;45.398;10.874;2023-11-21T12:19:52;21.55;;;12.45;;
46689;SDS011;32423;45.398;10.874;2023-11-21T12:22:51;19.00;;;12.02;;
46689;SDS011;32423;45.398;10.874;2023-11-21T12:25:48;13.85;;;9.05;;
46689;SDS011;32423;45.398;10.874;2023-11-21T12:28:43;17.95;;;11.68;;
46689;SDS011;32423;45.398;10.874;2023-11-21T12:31:43;23.13;;;12.43;;
46689;SDS011;32423;45.398;10.874;2023-11-21T12:34:40;26.73;;;11.73;;
46689;SDS011;32423;45.398;10.874;2023-11-21T12:37:33;16.30;;;10.52;;
46689;SDS011;32423;45.398;10.874;2023-11-21T12:40:28;15.50;;;7.30;;
46689;SDS011;32423;45.398;10.874;2023-11-21T12:43:22;14.07;;;8.05;;
46689;SDS011;32423;45.398;10.874;2023-11-21T12:46:12;18.45;;;9.63;;
46689;SDS011;32423;45.398;10.874;2023-11-21T12:49:06;20.70;;;10.50;;
46689;SDS011;32423;45.398;10.874;2023-11-21T12:52:05;16.80;;;9.10;;
46689;SDS011;32423;45.398;10.874;2023-11-21T12:55:00;14.68;;;8.18;;
46689;SDS011;32423;45.398;10.874;2023-11-21T13:00:48;13.13;;;7.68;;
46689;SDS011;32423;45.398;10.874;2023-11-21T13:03:43;9.30;;;6.10;;
46689;SDS011;32423;45.398;10.874;2023-11-21T13:06:35;13.13;;;6.60;;
46689;SDS011;32423;45.398;10.874;2023-11-21T13:09:30;9.38;;;6.00;;
46689;SDS011;32423;45.398;10.874;2023-11-21T13:12:27;14.60;;;6.27;;
46689;SDS011;32423;45.398;10.874;2023-11-21T13:15:22;15.38;;;6.68;;
46689;SDS011;32423;45.398;10.874;2023-11-21T13:18:19;12.35;;;6.88;;
46689;SDS011;32423;45.398;10.874;2023-11-21T13:21:14;7.53;;;4.78;;
46689;SDS011;32423;45.398;10.874;2023-11-21T13:24:04;10.43;;;6.30;;
46689;SDS011;32423;45.398;10.874;2023-11-21T13:26:56;14.98;;;6.22;;
46689;SDS011;32423;45.398;10.874;2023-11-21T13:29:53;7.60;;;4.27;;
46689;SDS011;32423;45.398;10.874;2023-11-21T13:32:46;9.20;;;3.97;;
46689;SDS011;32423;45.398;10.874;2023-11-21T13:35:37;12.40;;;6.28;;
46689;SDS011;32423;45.398;10.874;2023-11-21T13:38:31;13.70;;;7.78;;
46689;SDS011;32423;45.398;10.874;2023-11-21T13:41:26;15.33;;;7.30;;
46689;SDS011;32423;45.398;10.874;2023-11-21T13:44:21;10.45;;;5.30;;
46689;SDS011;32423;45.398;10.874;2023-11-21T13:47:21;10.95;;;6.93;;
46689;SDS011;32423;45.398;10.874;2023-11-21T13:50:18;14.60;;;8.27;;
46689;SDS011;32423;45.398;10.874;2023-11-21T13:53:15;8.43;;;5.35;;
46689;SDS011;32423;45.398;10.874;2023-11-21T13:56:12;13.23;;;6.30;;
46689;SDS011;32423;45.398;10.874;2023-11-21T13:59:08;12.30;;;6.20;;
46689;SDS011;32423;45.398;10.874;2023-11-21T14:02:20;8.93;;;4.97;;
46689;SDS011;32423;45.398;10.874;2023-11-21T14:05:21;8.85;;;4.38;;
46689;SDS011;32423;45.398;10.874;2023-11-21T14:08:18;7.20;;;4.65;;
46689;SDS011;32423;45.398;10.874;2023-11-21T14:11:13;5.93;;;3.77;;
46689;SDS011;32423;45.398;10.874;2023-11-21T14:14:08;6.70;;;4.35;;
46689;SDS011;32423;45.398;10.874;2023-11-21T14:17:04;9.23;;;4.47;;
46689;SDS011;32423;45.398;10.874;2023-11-21T14:19:59;10.93;;;4.72;;
46689;SDS011;32423;45.398;10.874;2023-11-21T14:22:52;9.30;;;4.07;;
46689;SDS011;32423;45.398;10.874;2023-11-21T14:25:47;6.07;;;3.92;;
46689;SDS011;32423;45.398;10.874;2023-11-21T14:28:42;8.77;;;4.17;;
46689;SDS011;32423;45.398;10.874;2023-11-21T14:31:36;5.97;;;3.00;;
46689;SDS011;32423;45.398;10.874;2023-11-21T14:34:31;7.18;;;3.28;;
46689;SDS011;32423;45.398;10.874;2023-11-21T14:37:26;5.60;;;3.37;;
46689;SDS011;32423;45.398;10.874;2023-11-21T14:40:20;6.50;;;3.87;;
46689;SDS011;32423;45.398;10.874;2023-11-21T14:43:11;4.47;;;3.30;;
46689;SDS011;32423;45.398;10.874;2023-11-21T14:46:01;7.75;;;3.60;;
46689;SDS011;32423;45.398;10.874;2023-11-21T14:48:55;5.32;;;3.20;;
46689;SDS011;32423;45.398;10.874;2023-11-21T14:51:51;4.72;;;2.85;;
46689;SDS011;32423;45.398;10.874;2023-11-21T14:54:52;9.10;;;3.63;;
46689;SDS011;32423;45.398;10.874;2023-11-21T14:58:04;7.93;;;4.20;;
46689;SDS011;32423;45.398;10.874;2023-11-21T15:01:01;13.60;;;3.83;;
46689;SDS011;32423;45.398;10.874;2023-11-21T15:03:57;12.68;;;3.28;;
46689;SDS011;32423;45.398;10.874;2023-11-21T15:06:49;5.05;;;2.75;;
46689;SDS011;32423;45.398;10.874;2023-11-21T15:09:44;4.65;;;2.65;;
46689;SDS011;32423;45.398;10.874;2023-11-21T15:12:36;5.88;;;2.25;;
46689;SDS011;32423;45.398;10.874;2023-11-21T15:15:31;2.40;;;1.70;;
46689;SDS011;32423;45.398;10.874;2023-11-21T15:18:24;8.52;;;2.00;;
46689;SDS011;32423;45.398;10.874;2023-11-21T15:21:18;5.40;;;1.80;;
46689;SDS011;32423;45.398;10.874;2023-11-21T15:24:13;1.50;;;1.40;;
46689;SDS011;32423;45.398;10.874;2023-11-21T15:27:05;3.40;;;1.70;;
